sensor_id;sensor_type;location;lat;lon;timestamp;P1;durP1;ratioP1;P2;durP2;ratioP2
3563;SDS011;1796;52.388;13.096;2022-08-24T00:00:16;11.43;;;5.47;;
3563;SDS011;1796;52.388;13.096;2022-08-24T00:02:44;7.33;;;5.00;;
3563;SDS011;1796;52.388;13.096;2022-08-24T00:05:11;7.50;;;5.40;;
3563;SDS011;1796;52.388;13.096;2022-08-24T00:07:38;7.93;;;5.73;;
3563;SDS011;1796;52.388;13.096;2022-08-24T00:10:08;10.80;;;5.80;;
3563;SDS011;1796;52.388;13.096;2022-08-24T00:12:36;10.73;;;5.03;;
3563;SDS011;1796;52.388;13.096;2022-08-24T00:15:05;8.30;;;5.63;;
3563;SDS011;1796;52.388;13.096;2022-08-24T00:17:35;8.17;;;5.47;;
3563;SDS011;1796;52.388;13.096;2022-08-24T00:20:03;7.10;;;5.50;;
3563;SDS011;1796;52.388;13.096;2022-08-24T00:22:31;5.93;;;5.43;;
3563;SDS011;1796;52.388;13.096;2022-08-24T00:24:58;9.43;;;5.67;;
3563;SDS011;1796;52.388;13.096;2022-08-24T00:27:25;6.40;;;5.20;;
3563;SDS011;1796;52.388;13.096;2022-08-24T00:29:52;6.27;;;5.33;;
3563;SDS011;1796;52.388;13.096;2022-08-24T00:32:21;7.80;;;5.27;;
3563;SDS011;1796;52.388;13.096;2022-08-24T00:34:48;12.73;;;6.17;;
3563;SDS011;1796;52.388;13.096;2022-08-24T00:37:15;8.13;;;5.47;;
3563;SDS011;1796;52.388;13.096;2022-08-24T00:39:41;7.23;;;6.30;;
3563;SDS011;1796;52.388;13.096;2022-08-24T00:42:08;8.90;;;5.47;;
3563;SDS011;1796;52.388;13.096;2022-08-24T00:44:35;7.27;;;6.03;;
3563;SDS011;1796;52.388;13.096;2022-08-24T00:47:03;6.47;;;5.47;;
3563;SDS011;1796;52.388;13.096;2022-08-24T00:49:38;8.77;;;5.23;;
3563;SDS011;1796;52.388;13.096;2022-08-24T00:52:10;16.00;;;5.97;;
3563;SDS011;1796;52.388;13.096;2022-08-24T00:54:41;6.40;;;5.80;;
3563;SDS011;1796;52.388;13.096;2022-08-24T00:57:12;12.70;;;6.27;;
3563;SDS011;1796;52.388;13.096;2022-08-24T00:59:42;8.57;;;5.90;;
3563;SDS011;1796;52.388;13.096;2022-08-24T01:02:15;10.03;;;6.10;;
3563;SDS011;1796;52.388;13.096;2022-08-24T01:04:48;12.87;;;6.17;;
3563;SDS011;1796;52.388;13.096;2022-08-24T01:07:18;8.43;;;6.30;;
3563;SDS011;1796;52.388;13.096;2022-08-24T01:09:47;14.53;;;6.23;;
3563;SDS011;1796;52.388;13.096;2022-08-24T01:12:15;7.40;;;6.10;;
3563;SDS011;1796;52.388;13.096;2022-08-24T01:14:42;7.97;;;6.10;;
3563;SDS011;1796;52.388;13.096;2022-08-24T01:17:09;17.10;;;6.43;;
3563;SDS011;1796;52.388;13.096;2022-08-24T01:19:56;9.33;;;5.60;;
3563;SDS011;1796;52.388;13.096;2022-08-24T01:22:28;7.37;;;6.67;;
3563;SDS011;1796;52.388;13.096;2022-08-24T01:25:05;16.70;;;6.30;;
3563;SDS011;1796;52.388;13.096;2022-08-24T01:27:33;7.77;;;6.57;;
3563;SDS011;1796;52.388;13.096;2022-08-24T01:30:01;8.27;;;6.07;;
3563;SDS011;1796;52.388;13.096;2022-08-24T01:32:32;16.20;;;5.70;;
3563;SDS011;1796;52.388;13.096;2022-08-24T01:34:59;6.87;;;5.57;;
3563;SDS011;1796;52.388;13.096;2022-08-24T01:37:26;14.17;;;5.50;;
3563;SDS011;1796;52.388;13.096;2022-08-24T01:39:54;7.10;;;6.10;;
3563;SDS011;1796;52.388;13.096;2022-08-24T01:42:23;21.13;;;5.50;;
3563;SDS011;1796;52.388;13.096;2022-08-24T01:44:51;7.50;;;5.10;;
3563;SDS011;1796;52.388;13.096;2022-08-24T01:47:18;10.03;;;5.73;;
3563;SDS011;1796;52.388;13.096;2022-08-24T01:49:45;10.23;;;5.27;;
3563;SDS011;1796;52.388;13.096;2022-08-24T01:52:14;8.90;;;5.37;;
3563;SDS011;1796;52.388;13.096;2022-08-24T01:54:43;7.70;;;5.30;;
3563;SDS011;1796;52.388;13.096;2022-08-24T01:57:10;10.77;;;6.30;;
3563;SDS011;1796;52.388;13.096;2022-08-24T01:59:39;8.30;;;5.90;;
3563;SDS011;1796;52.388;13.096;2022-08-24T02:02:07;9.90;;;5.67;;
3563;SDS011;1796;52.388;13.096;2022-08-24T02:04:36;7.57;;;6.07;;
3563;SDS011;1796;52.388;13.096;2022-08-24T02:07:04;7.13;;;6.13;;
3563;SDS011;1796;52.388;13.096;2022-08-24T02:09:32;9.73;;;5.93;;
3563;SDS011;1796;52.388;13.096;2022-08-24T02:11:59;8.93;;;6.17;;
3563;SDS011;1796;52.388;13.096;2022-08-24T02:14:26;6.97;;;6.10;;
3563;SDS011;1796;52.388;13.096;2022-08-24T02:16:55;11.53;;;5.70;;
3563;SDS011;1796;52.388;13.096;2022-08-24T02:19:22;10.43;;;5.87;;
3563;SDS011;1796;52.388;13.096;2022-08-24T02:21:50;8.90;;;5.83;;
3563;SDS011;1796;52.388;13.096;2022-08-24T02:24:17;5.97;;;5.20;;
3563;SDS011;1796;52.388;13.096;2022-08-24T02:26:44;11.27;;;5.23;;
3563;SDS011;1796;52.388;13.096;2022-08-24T02:29:11;9.90;;;5.70;;
3563;SDS011;1796;52.388;13.096;2022-08-24T02:31:38;6.30;;;5.70;;
3563;SDS011;1796;52.388;13.096;2022-08-24T02:34:06;8.60;;;6.40;;
3563;SDS011;1796;52.388;13.096;2022-08-24T02:36:33;7.70;;;5.50;;
3563;SDS011;1796;52.388;13.096;2022-08-24T02:39:00;16.03;;;6.30;;
3563;SDS011;1796;52.388;13.096;2022-08-24T02:41:27;13.27;;;6.17;;
3563;SDS011;1796;52.388;13.096;2022-08-24T02:43:54;7.53;;;6.07;;
3563;SDS011;1796;52.388;13.096;2022-08-24T02:46:22;9.73;;;6.60;;
3563;SDS011;1796;52.388;13.096;2022-08-24T02:48:50;8.57;;;5.97;;
3563;SDS011;1796;52.388;13.096;2022-08-24T02:51:19;8.93;;;5.20;;
3563;SDS011;1796;52.388;13.096;2022-08-24T02:53:47;12.73;;;6.20;;
3563;SDS011;1796;52.388;13.096;2022-08-24T02:56:15;10.10;;;5.90;;
3563;SDS011;1796;52.388;13.096;2022-08-24T02:58:42;14.03;;;6.63;;
3563;SDS011;1796;52.388;13.096;2022-08-24T03:01:10;17.40;;;5.63;;
3563;SDS011;1796;52.388;13.096;2022-08-24T03:03:37;7.00;;;6.40;;
3563;SDS011;1796;52.388;13.096;2022-08-24T03:06:05;19.57;;;6.20;;
3563;SDS011;1796;52.388;13.096;2022-08-24T03:08:34;13.90;;;7.47;;
3563;SDS011;1796;52.388;13.096;2022-08-24T03:11:03;7.77;;;7.00;;
3563;SDS011;1796;52.388;13.096;2022-08-24T03:13:32;13.73;;;6.83;;
3563;SDS011;1796;52.388;13.096;2022-08-24T03:16:00;8.67;;;6.50;;
3563;SDS011;1796;52.388;13.096;2022-08-24T03:18:27;11.80;;;7.50;;
3563;SDS011;1796;52.388;13.096;2022-08-24T03:20:55;7.40;;;6.67;;
3563;SDS011;1796;52.388;13.096;2022-08-24T03:23:23;7.67;;;6.87;;
3563;SDS011;1796;52.388;13.096;2022-08-24T03:25:53;14.90;;;7.10;;
3563;SDS011;1796;52.388;13.096;2022-08-24T03:28:20;20.23;;;8.17;;
3563;SDS011;1796;52.388;13.096;2022-08-24T03:30:48;10.17;;;7.90;;
3563;SDS011;1796;52.388;13.096;2022-08-24T03:33:15;11.43;;;7.40;;
3563;SDS011;1796;52.388;13.096;2022-08-24T03:35:43;11.87;;;7.23;;
3563;SDS011;1796;52.388;13.096;2022-08-24T03:38:10;13.93;;;7.60;;
3563;SDS011;1796;52.388;13.096;2022-08-24T03:40:37;10.87;;;8.70;;
3563;SDS011;1796;52.388;13.096;2022-08-24T03:43:06;18.60;;;8.13;;
3563;SDS011;1796;52.388;13.096;2022-08-24T03:45:54;27.63;;;13.23;;
3563;SDS011;1796;52.388;13.096;2022-08-24T03:48:21;14.80;;;9.30;;
3563;SDS011;1796;52.388;13.096;2022-08-24T03:50:48;29.83;;;14.60;;
3563;SDS011;1796;52.388;13.096;2022-08-24T03:53:15;29.80;;;13.00;;
3563;SDS011;1796;52.388;13.096;2022-08-24T03:55:42;26.10;;;12.77;;
3563;SDS011;1796;52.388;13.096;2022-08-24T03:58:10;32.97;;;13.87;;
3563;SDS011;1796;52.388;13.096;2022-08-24T04:00:38;22.47;;;13.73;;
3563;SDS011;1796;52.388;13.096;2022-08-24T04:03:21;34.33;;;12.93;;
3563;SDS011;1796;52.388;13.096;2022-08-24T04:05:48;32.87;;;15.37;;
3563;SDS011;1796;52.388;13.096;2022-08-24T04:08:15;31.30;;;15.30;;
3563;SDS011;1796;52.388;13.096;2022-08-24T04:10:43;28.90;;;14.07;;
3563;SDS011;1796;52.388;13.096;2022-08-24T04:13:12;25.80;;;12.87;;
3563;SDS011;1796;52.388;13.096;2022-08-24T04:15:41;25.17;;;11.80;;
3563;SDS011;1796;52.388;13.096;2022-08-24T04:18:08;31.10;;;12.43;;
3563;SDS011;1796;52.388;13.096;2022-08-24T04:20:36;28.00;;;11.70;;
3563;SDS011;1796;52.388;13.096;2022-08-24T04:23:04;37.20;;;12.00;;
3563;SDS011;1796;52.388;13.096;2022-08-24T04:25:37;32.47;;;12.57;;
3563;SDS011;1796;52.388;13.096;2022-08-24T04:28:06;43.67;;;14.37;;
3563;SDS011;1796;52.388;13.096;2022-08-24T04:30:34;35.57;;;13.00;;
3563;SDS011;1796;52.388;13.096;2022-08-24T04:33:05;42.63;;;14.47;;
3563;SDS011;1796;52.388;13.096;2022-08-24T04:35:35;38.03;;;15.10;;
3563;SDS011;1796;52.388;13.096;2022-08-24T04:38:03;38.33;;;13.43;;
3563;SDS011;1796;52.388;13.096;2022-08-24T04:40:30;58.90;;;14.60;;
3563;SDS011;1796;52.388;13.096;2022-08-24T04:42:57;50.13;;;14.20;;
3563;SDS011;1796;52.388;13.096;2022-08-24T04:45:24;41.27;;;14.37;;
3563;SDS011;1796;52.388;13.096;2022-08-24T04:47:53;30.27;;;14.80;;
3563;SDS011;1796;52.388;13.096;2022-08-24T04:50:20;23.40;;;13.40;;
3563;SDS011;1796;52.388;13.096;2022-08-24T04:52:47;37.03;;;13.87;;
3563;SDS011;1796;52.388;13.096;2022-08-24T04:55:14;39.10;;;15.20;;
3563;SDS011;1796;52.388;13.096;2022-08-24T04:57:41;31.20;;;14.43;;
3563;SDS011;1796;52.388;13.096;2022-08-24T05:00:08;27.33;;;13.97;;
3563;SDS011;1796;52.388;13.096;2022-08-24T05:02:36;33.40;;;14.37;;
3563;SDS011;1796;52.388;13.096;2022-08-24T05:05:06;27.03;;;13.47;;
3563;SDS011;1796;52.388;13.096;2022-08-24T05:07:34;32.40;;;14.50;;
3563;SDS011;1796;52.388;13.096;2022-08-24T05:10:02;19.43;;;11.37;;
3563;SDS011;1796;52.388;13.096;2022-08-24T05:12:30;25.10;;;12.70;;
3563;SDS011;1796;52.388;13.096;2022-08-24T05:14:58;19.10;;;11.20;;
3563;SDS011;1796;52.388;13.096;2022-08-24T05:17:25;20.93;;;12.30;;
3563;SDS011;1796;52.388;13.096;2022-08-24T05:19:53;16.50;;;10.00;;
3563;SDS011;1796;52.388;13.096;2022-08-24T05:22:21;15.07;;;9.93;;
3563;SDS011;1796;52.388;13.096;2022-08-24T05:24:48;18.40;;;10.73;;
3563;SDS011;1796;52.388;13.096;2022-08-24T05:27:16;22.40;;;11.27;;
3563;SDS011;1796;52.388;13.096;2022-08-24T05:29:43;16.97;;;10.17;;
3563;SDS011;1796;52.388;13.096;2022-08-24T05:32:10;25.53;;;11.00;;
3563;SDS011;1796;52.388;13.096;2022-08-24T05:34:37;16.97;;;11.10;;
3563;SDS011;1796;52.388;13.096;2022-08-24T05:37:04;23.83;;;12.10;;
3563;SDS011;1796;52.388;13.096;2022-08-24T05:39:33;34.93;;;12.13;;
3563;SDS011;1796;52.388;13.096;2022-08-24T05:42:00;29.03;;;12.00;;
3563;SDS011;1796;52.388;13.096;2022-08-24T05:44:28;21.43;;;13.13;;
3563;SDS011;1796;52.388;13.096;2022-08-24T05:46:55;32.17;;;12.37;;
3563;SDS011;1796;52.388;13.096;2022-08-24T05:49:23;19.03;;;12.47;;
3563;SDS011;1796;52.388;13.096;2022-08-24T05:51:50;18.93;;;11.37;;
3563;SDS011;1796;52.388;13.096;2022-08-24T05:54:17;25.67;;;12.43;;
3563;SDS011;1796;52.388;13.096;2022-08-24T05:56:45;22.93;;;13.27;;
3563;SDS011;1796;52.388;13.096;2022-08-24T05:59:12;23.00;;;13.03;;
3563;SDS011;1796;52.388;13.096;2022-08-24T06:01:42;25.10;;;13.73;;
3563;SDS011;1796;52.388;13.096;2022-08-24T06:04:08;21.83;;;13.00;;
3563;SDS011;1796;52.388;13.096;2022-08-24T06:06:36;19.13;;;12.50;;
3563;SDS011;1796;52.388;13.096;2022-08-24T06:09:03;20.47;;;14.03;;
3563;SDS011;1796;52.388;13.096;2022-08-24T06:11:31;24.43;;;13.40;;
3563;SDS011;1796;52.388;13.096;2022-08-24T06:14:02;20.67;;;14.23;;
3563;SDS011;1796;52.388;13.096;2022-08-24T06:16:33;25.13;;;14.20;;
3563;SDS011;1796;52.388;13.096;2022-08-24T06:19:00;23.43;;;13.20;;
3563;SDS011;1796;52.388;13.096;2022-08-24T06:21:27;23.13;;;14.10;;
3563;SDS011;1796;52.388;13.096;2022-08-24T06:23:54;22.40;;;13.70;;
3563;SDS011;1796;52.388;13.096;2022-08-24T06:26:21;21.90;;;14.70;;
3563;SDS011;1796;52.388;13.096;2022-08-24T06:29:07;20.47;;;14.27;;
3563;SDS011;1796;52.388;13.096;2022-08-24T06:31:35;26.10;;;17.00;;
3563;SDS011;1796;52.388;13.096;2022-08-24T06:34:03;27.30;;;16.50;;
3563;SDS011;1796;52.388;13.096;2022-08-24T06:36:30;22.17;;;15.93;;
3563;SDS011;1796;52.388;13.096;2022-08-24T06:38:57;23.37;;;15.70;;
3563;SDS011;1796;52.388;13.096;2022-08-24T06:41:24;24.70;;;17.07;;
3563;SDS011;1796;52.388;13.096;2022-08-24T06:43:51;28.10;;;16.57;;
3563;SDS011;1796;52.388;13.096;2022-08-24T06:46:20;25.90;;;16.67;;
3563;SDS011;1796;52.388;13.096;2022-08-24T06:48:46;27.63;;;18.47;;
3563;SDS011;1796;52.388;13.096;2022-08-24T06:51:14;25.03;;;17.00;;
3563;SDS011;1796;52.388;13.096;2022-08-24T06:53:43;26.83;;;17.47;;
3563;SDS011;1796;52.388;13.096;2022-08-24T06:56:10;27.53;;;19.80;;
3563;SDS011;1796;52.388;13.096;2022-08-24T06:58:38;28.73;;;18.23;;
3563;SDS011;1796;52.388;13.096;2022-08-24T07:01:08;27.20;;;18.40;;
3563;SDS011;1796;52.388;13.096;2022-08-24T07:03:38;24.90;;;17.63;;
3563;SDS011;1796;52.388;13.096;2022-08-24T07:06:06;28.70;;;18.07;;
3563;SDS011;1796;52.388;13.096;2022-08-24T07:08:33;27.43;;;17.53;;
3563;SDS011;1796;52.388;13.096;2022-08-24T07:11:01;25.57;;;17.73;;
3563;SDS011;1796;52.388;13.096;2022-08-24T07:13:29;27.63;;;19.27;;
3563;SDS011;1796;52.388;13.096;2022-08-24T07:15:56;25.80;;;19.33;;
3563;SDS011;1796;52.388;13.096;2022-08-24T07:18:24;26.20;;;17.60;;
3563;SDS011;1796;52.388;13.096;2022-08-24T07:20:53;28.20;;;19.17;;
3563;SDS011;1796;52.388;13.096;2022-08-24T07:23:20;33.27;;;20.20;;
3563;SDS011;1796;52.388;13.096;2022-08-24T07:25:48;28.17;;;19.67;;
3563;SDS011;1796;52.388;13.096;2022-08-24T07:28:15;30.13;;;19.80;;
3563;SDS011;1796;52.388;13.096;2022-08-24T07:30:42;27.33;;;18.23;;
3563;SDS011;1796;52.388;13.096;2022-08-24T07:33:10;31.77;;;21.90;;
3563;SDS011;1796;52.388;13.096;2022-08-24T07:35:38;29.07;;;19.27;;
3563;SDS011;1796;52.388;13.096;2022-08-24T07:38:06;26.47;;;19.07;;
3563;SDS011;1796;52.388;13.096;2022-08-24T07:40:33;26.93;;;18.00;;
3563;SDS011;1796;52.388;13.096;2022-08-24T07:43:00;24.73;;;17.53;;
3563;SDS011;1796;52.388;13.096;2022-08-24T07:45:28;23.70;;;17.50;;
3563;SDS011;1796;52.388;13.096;2022-08-24T07:47:57;28.37;;;17.23;;
3563;SDS011;1796;52.388;13.096;2022-08-24T07:50:26;28.20;;;16.13;;
3563;SDS011;1796;52.388;13.096;2022-08-24T07:52:54;22.70;;;14.50;;
3563;SDS011;1796;52.388;13.096;2022-08-24T07:55:23;25.80;;;17.20;;
3563;SDS011;1796;52.388;13.096;2022-08-24T07:57:50;21.37;;;14.53;;
3563;SDS011;1796;52.388;13.096;2022-08-24T08:00:18;23.30;;;15.93;;
3563;SDS011;1796;52.388;13.096;2022-08-24T08:02:45;23.93;;;15.83;;
3563;SDS011;1796;52.388;13.096;2022-08-24T08:05:13;23.73;;;14.57;;
3563;SDS011;1796;52.388;13.096;2022-08-24T08:07:40;23.87;;;14.93;;
3563;SDS011;1796;52.388;13.096;2022-08-24T08:10:08;29.23;;;15.97;;
3563;SDS011;1796;52.388;13.096;2022-08-24T08:12:38;25.90;;;15.60;;
3563;SDS011;1796;52.388;13.096;2022-08-24T08:15:05;27.33;;;15.60;;
3563;SDS011;1796;52.388;13.096;2022-08-24T08:17:34;21.07;;;14.33;;
3563;SDS011;1796;52.388;13.096;2022-08-24T08:20:01;25.90;;;15.40;;
3563;SDS011;1796;52.388;13.096;2022-08-24T08:22:29;25.10;;;14.80;;
3563;SDS011;1796;52.388;13.096;2022-08-24T08:25:27;27.90;;;15.70;;
3563;SDS011;1796;52.388;13.096;2022-08-24T08:27:56;25.67;;;15.90;;
3563;SDS011;1796;52.388;13.096;2022-08-24T08:30:23;25.97;;;16.17;;
3563;SDS011;1796;52.388;13.096;2022-08-24T08:32:50;27.57;;;15.97;;
3563;SDS011;1796;52.388;13.096;2022-08-24T08:35:17;18.20;;;13.93;;
3563;SDS011;1796;52.388;13.096;2022-08-24T08:37:44;28.50;;;15.17;;
3563;SDS011;1796;52.388;13.096;2022-08-24T08:40:23;24.40;;;14.80;;
3563;SDS011;1796;52.388;13.096;2022-08-24T08:43:00;23.73;;;15.20;;
3563;SDS011;1796;52.388;13.096;2022-08-24T08:45:42;18.40;;;13.20;;
3563;SDS011;1796;52.388;13.096;2022-08-24T08:48:46;19.63;;;12.90;;
3563;SDS011;1796;52.388;13.096;2022-08-24T08:54:41;19.00;;;13.40;;
3563;SDS011;1796;52.388;13.096;2022-08-24T08:57:17;18.33;;;13.30;;
3563;SDS011;1796;52.388;13.096;2022-08-24T09:00:03;17.67;;;12.20;;
3563;SDS011;1796;52.388;13.096;2022-08-24T09:02:38;16.40;;;10.87;;
3563;SDS011;1796;52.388;13.096;2022-08-24T09:05:43;16.53;;;12.63;;
3563;SDS011;1796;52.388;13.096;2022-08-24T09:08:32;20.20;;;12.30;;
3563;SDS011;1796;52.388;13.096;2022-08-24T09:11:15;18.30;;;12.53;;
3563;SDS011;1796;52.388;13.096;2022-08-24T09:16:50;14.70;;;11.63;;
3563;SDS011;1796;52.388;13.096;2022-08-24T09:19:31;21.13;;;11.97;;
3563;SDS011;1796;52.388;13.096;2022-08-24T09:22:10;16.70;;;10.60;;
3563;SDS011;1796;52.388;13.096;2022-08-24T09:24:46;21.30;;;10.90;;
3563;SDS011;1796;52.388;13.096;2022-08-24T09:27:26;15.80;;;11.13;;
3563;SDS011;1796;52.388;13.096;2022-08-24T09:30:06;18.47;;;12.37;;
3563;SDS011;1796;52.388;13.096;2022-08-24T09:32:42;17.80;;;11.77;;
3563;SDS011;1796;52.388;13.096;2022-08-24T09:35:21;18.43;;;12.33;;
3563;SDS011;1796;52.388;13.096;2022-08-24T09:37:57;22.83;;;11.80;;
3563;SDS011;1796;52.388;13.096;2022-08-24T09:40:30;18.97;;;11.10;;
3563;SDS011;1796;52.388;13.096;2022-08-24T09:46:22;16.53;;;11.00;;
3563;SDS011;1796;52.388;13.096;2022-08-24T09:49:23;11.30;;;9.87;;
3563;SDS011;1796;52.388;13.096;2022-08-24T09:52:15;14.93;;;9.73;;
3563;SDS011;1796;52.388;13.096;2022-08-24T09:55:02;15.13;;;10.17;;
3563;SDS011;1796;52.388;13.096;2022-08-24T09:58:00;12.10;;;9.40;;
3563;SDS011;1796;52.388;13.096;2022-08-24T10:00:36;14.43;;;9.60;;
3563;SDS011;1796;52.388;13.096;2022-08-24T10:03:23;9.67;;;8.63;;
3563;SDS011;1796;52.388;13.096;2022-08-24T10:06:14;13.30;;;10.70;;
3563;SDS011;1796;52.388;13.096;2022-08-24T10:08:59;17.20;;;9.17;;
3563;SDS011;1796;52.388;13.096;2022-08-24T10:11:38;12.40;;;10.07;;
3563;SDS011;1796;52.388;13.096;2022-08-24T10:14:13;14.17;;;8.93;;
3563;SDS011;1796;52.388;13.096;2022-08-24T10:16:46;15.80;;;9.87;;
3563;SDS011;1796;52.388;13.096;2022-08-24T10:19:34;13.63;;;9.17;;
3563;SDS011;1796;52.388;13.096;2022-08-24T10:22:16;13.60;;;9.67;;
3563;SDS011;1796;52.388;13.096;2022-08-24T10:24:56;16.13;;;8.83;;
3563;SDS011;1796;52.388;13.096;2022-08-24T10:27:49;13.47;;;8.17;;
3563;SDS011;1796;52.388;13.096;2022-08-24T10:33:21;13.10;;;8.90;;
3563;SDS011;1796;52.388;13.096;2022-08-24T10:38:59;9.03;;;8.10;;
3563;SDS011;1796;52.388;13.096;2022-08-24T10:42:13;11.77;;;8.63;;
3563;SDS011;1796;52.388;13.096;2022-08-24T10:45:27;11.27;;;7.90;;
3563;SDS011;1796;52.388;13.096;2022-08-24T10:48:13;13.90;;;8.10;;
3563;SDS011;1796;52.388;13.096;2022-08-24T10:51:02;9.77;;;7.60;;
3563;SDS011;1796;52.388;13.096;2022-08-24T10:53:38;20.13;;;8.27;;
3563;SDS011;1796;52.388;13.096;2022-08-24T10:56:08;14.40;;;7.83;;
3563;SDS011;1796;52.388;13.096;2022-08-24T10:58:44;18.40;;;8.67;;
3563;SDS011;1796;52.388;13.096;2022-08-24T11:01:25;12.00;;;7.57;;
3563;SDS011;1796;52.388;13.096;2022-08-24T11:04:00;12.83;;;8.00;;
3563;SDS011;1796;52.388;13.096;2022-08-24T11:06:32;8.53;;;7.20;;
3563;SDS011;1796;52.388;13.096;2022-08-24T11:09:02;11.50;;;8.00;;
3563;SDS011;1796;52.388;13.096;2022-08-24T11:11:35;11.93;;;7.53;;
3563;SDS011;1796;52.388;13.096;2022-08-24T11:14:05;12.20;;;8.00;;
3563;SDS011;1796;52.388;13.096;2022-08-24T11:16:35;12.07;;;8.07;;
3563;SDS011;1796;52.388;13.096;2022-08-24T11:19:05;11.47;;;7.90;;
3563;SDS011;1796;52.388;13.096;2022-08-24T11:24:25;12.20;;;8.27;;
3563;SDS011;1796;52.388;13.096;2022-08-24T11:26:58;17.27;;;7.50;;
3563;SDS011;1796;52.388;13.096;2022-08-24T11:29:29;12.90;;;8.43;;
3563;SDS011;1796;52.388;13.096;2022-08-24T11:32:25;15.60;;;9.07;;
3563;SDS011;1796;52.388;13.096;2022-08-24T11:34:58;10.77;;;8.13;;
3563;SDS011;1796;52.388;13.096;2022-08-24T11:37:29;11.63;;;8.10;;
3563;SDS011;1796;52.388;13.096;2022-08-24T11:39:58;18.43;;;8.13;;
3563;SDS011;1796;52.388;13.096;2022-08-24T11:42:30;10.97;;;7.57;;
3563;SDS011;1796;52.388;13.096;2022-08-24T11:45:08;9.73;;;6.80;;
3563;SDS011;1796;52.388;13.096;2022-08-24T11:47:47;10.93;;;6.47;;
3563;SDS011;1796;52.388;13.096;2022-08-24T11:50:24;10.80;;;7.40;;
3563;SDS011;1796;52.388;13.096;2022-08-24T11:52:58;13.70;;;7.30;;
3563;SDS011;1796;52.388;13.096;2022-08-24T11:55:33;11.07;;;7.33;;
3563;SDS011;1796;52.388;13.096;2022-08-24T11:58:07;10.43;;;7.67;;
3563;SDS011;1796;52.388;13.096;2022-08-24T12:00:44;10.93;;;7.10;;
3563;SDS011;1796;52.388;13.096;2022-08-24T12:03:22;9.37;;;7.53;;
3563;SDS011;1796;52.388;13.096;2022-08-24T12:06:06;19.97;;;7.70;;
3563;SDS011;1796;52.388;13.096;2022-08-24T12:08:44;12.00;;;7.00;;
3563;SDS011;1796;52.388;13.096;2022-08-24T12:11:16;13.83;;;7.00;;
3563;SDS011;1796;52.388;13.096;2022-08-24T12:13:51;12.30;;;6.93;;
3563;SDS011;1796;52.388;13.096;2022-08-24T12:16:27;8.10;;;7.10;;
3563;SDS011;1796;52.388;13.096;2022-08-24T12:19:02;9.13;;;6.97;;
3563;SDS011;1796;52.388;13.096;2022-08-24T12:21:35;12.03;;;6.90;;
3563;SDS011;1796;52.388;13.096;2022-08-24T12:24:07;9.37;;;6.20;;
3563;SDS011;1796;52.388;13.096;2022-08-24T12:26:40;11.00;;;6.27;;
3563;SDS011;1796;52.388;13.096;2022-08-24T12:29:09;8.90;;;5.73;;
3563;SDS011;1796;52.388;13.096;2022-08-24T12:31:42;13.43;;;7.37;;
3563;SDS011;1796;52.388;13.096;2022-08-24T12:34:13;16.00;;;6.50;;
3563;SDS011;1796;52.388;13.096;2022-08-24T12:36:47;12.60;;;6.23;;
3563;SDS011;1796;52.388;13.096;2022-08-24T12:39:25;12.13;;;6.10;;
3563;SDS011;1796;52.388;13.096;2022-08-24T12:41:57;12.97;;;7.47;;
3563;SDS011;1796;52.388;13.096;2022-08-24T12:44:34;6.63;;;5.93;;
3563;SDS011;1796;52.388;13.096;2022-08-24T12:47:07;9.57;;;6.53;;
3563;SDS011;1796;52.388;13.096;2022-08-24T12:49:37;10.67;;;6.93;;
3563;SDS011;1796;52.388;13.096;2022-08-24T12:55:44;18.77;;;7.30;;
3563;SDS011;1796;52.388;13.096;2022-08-24T12:58:27;12.93;;;7.00;;
3563;SDS011;1796;52.388;13.096;2022-08-24T13:01:06;11.50;;;6.40;;
3563;SDS011;1796;52.388;13.096;2022-08-24T13:03:34;9.00;;;7.07;;
3563;SDS011;1796;52.388;13.096;2022-08-24T13:06:05;12.37;;;7.97;;
3563;SDS011;1796;52.388;13.096;2022-08-24T13:08:35;9.93;;;7.90;;
3563;SDS011;1796;52.388;13.096;2022-08-24T13:11:05;17.53;;;6.90;;
3563;SDS011;1796;52.388;13.096;2022-08-24T13:13:41;12.10;;;6.53;;
3563;SDS011;1796;52.388;13.096;2022-08-24T13:19:33;19.73;;;7.20;;
3563;SDS011;1796;52.388;13.096;2022-08-24T13:25:40;11.67;;;6.80;;
3563;SDS011;1796;52.388;13.096;2022-08-24T13:28:26;12.57;;;7.00;;
3563;SDS011;1796;52.388;13.096;2022-08-24T13:33:47;8.57;;;7.20;;
3563;SDS011;1796;52.388;13.096;2022-08-24T13:39:21;9.90;;;6.07;;
3563;SDS011;1796;52.388;13.096;2022-08-24T13:42:08;7.30;;;6.00;;
3563;SDS011;1796;52.388;13.096;2022-08-24T13:44:52;7.73;;;6.20;;
3563;SDS011;1796;52.388;13.096;2022-08-24T13:47:44;11.50;;;6.43;;
3563;SDS011;1796;52.388;13.096;2022-08-24T13:50:26;9.50;;;6.47;;
3563;SDS011;1796;52.388;13.096;2022-08-24T13:53:03;10.13;;;6.00;;
3563;SDS011;1796;52.388;13.096;2022-08-24T13:55:49;7.60;;;6.47;;
3563;SDS011;1796;52.388;13.096;2022-08-24T13:58:20;16.37;;;5.63;;
3563;SDS011;1796;52.388;13.096;2022-08-24T14:01:02;9.13;;;5.70;;
3563;SDS011;1796;52.388;13.096;2022-08-24T14:03:55;13.20;;;6.03;;
3563;SDS011;1796;52.388;13.096;2022-08-24T14:06:35;9.10;;;6.27;;
3563;SDS011;1796;52.388;13.096;2022-08-24T14:09:17;11.40;;;5.63;;
3563;SDS011;1796;52.388;13.096;2022-08-24T14:11:59;7.90;;;5.50;;
3563;SDS011;1796;52.388;13.096;2022-08-24T14:14:41;8.60;;;6.30;;
3563;SDS011;1796;52.388;13.096;2022-08-24T14:17:21;7.80;;;5.67;;
3563;SDS011;1796;52.388;13.096;2022-08-24T14:20:22;12.63;;;5.50;;
3563;SDS011;1796;52.388;13.096;2022-08-24T14:23:00;10.07;;;6.40;;
3563;SDS011;1796;52.388;13.096;2022-08-24T14:25:33;10.60;;;6.17;;
3563;SDS011;1796;52.388;13.096;2022-08-24T14:28:22;15.40;;;7.03;;
3563;SDS011;1796;52.388;13.096;2022-08-24T14:31:21;13.73;;;6.27;;
3563;SDS011;1796;52.388;13.096;2022-08-24T14:34:05;8.83;;;6.40;;
3563;SDS011;1796;52.388;13.096;2022-08-24T14:36:42;9.07;;;6.40;;
3563;SDS011;1796;52.388;13.096;2022-08-24T14:39:19;7.50;;;6.10;;
3563;SDS011;1796;52.388;13.096;2022-08-24T14:41:57;15.77;;;6.63;;
3563;SDS011;1796;52.388;13.096;2022-08-24T14:44:43;13.87;;;6.10;;
3563;SDS011;1796;52.388;13.096;2022-08-24T14:47:22;8.93;;;6.13;;
3563;SDS011;1796;52.388;13.096;2022-08-24T14:50:04;12.70;;;6.43;;
3563;SDS011;1796;52.388;13.096;2022-08-24T14:52:43;16.97;;;6.77;;
3563;SDS011;1796;52.388;13.096;2022-08-24T14:55:21;18.37;;;6.77;;
3563;SDS011;1796;52.388;13.096;2022-08-24T14:58:00;8.97;;;6.10;;
3563;SDS011;1796;52.388;13.096;2022-08-24T15:00:46;9.50;;;6.30;;
3563;SDS011;1796;52.388;13.096;2022-08-24T15:06:23;11.73;;;7.03;;
3563;SDS011;1796;52.388;13.096;2022-08-24T15:09:04;12.17;;;6.87;;
3563;SDS011;1796;52.388;13.096;2022-08-24T15:11:36;8.70;;;6.67;;
3563;SDS011;1796;52.388;13.096;2022-08-24T15:14:06;10.70;;;6.23;;
3563;SDS011;1796;52.388;13.096;2022-08-24T15:16:42;9.30;;;6.13;;
3563;SDS011;1796;52.388;13.096;2022-08-24T15:19:16;12.57;;;6.00;;
3563;SDS011;1796;52.388;13.096;2022-08-24T15:21:50;9.43;;;6.37;;
3563;SDS011;1796;52.388;13.096;2022-08-24T15:24:24;9.53;;;6.10;;
3563;SDS011;1796;52.388;13.096;2022-08-24T15:27:06;7.53;;;5.90;;
3563;SDS011;1796;52.388;13.096;2022-08-24T15:29:50;8.97;;;6.23;;
3563;SDS011;1796;52.388;13.096;2022-08-24T15:32:20;9.00;;;5.80;;
3563;SDS011;1796;52.388;13.096;2022-08-24T15:34:51;7.03;;;6.00;;
3563;SDS011;1796;52.388;13.096;2022-08-24T15:37:26;8.20;;;5.90;;
3563;SDS011;1796;52.388;13.096;2022-08-24T15:39:55;14.30;;;6.07;;
3563;SDS011;1796;52.388;13.096;2022-08-24T15:42:23;16.13;;;6.50;;
3563;SDS011;1796;52.388;13.096;2022-08-24T15:44:51;9.93;;;5.87;;
3563;SDS011;1796;52.388;13.096;2022-08-24T15:47:20;10.70;;;5.73;;
3563;SDS011;1796;52.388;13.096;2022-08-24T15:49:54;7.17;;;5.30;;
3563;SDS011;1796;52.388;13.096;2022-08-24T15:52:36;7.47;;;5.60;;
3563;SDS011;1796;52.388;13.096;2022-08-24T15:55:13;8.20;;;5.83;;